Video statistics

Date Title Duration Views Likes Dislikes Comments Transcribed Length
2007-03-14 March 14: Becoming a NerdFighter 03:13 171,165 2,954 14 717 3,301
2007-04-25 Helen Hunt 03:25 467,417 5,469 120 1,028 2,447
2007-05-09 My 9th: Singing and Randy 03:54 125,294 2,137 19 186 2,795
2007-05-23 May 23rd: Miniature Soccer Team 03:22 128,087 2,345 15 192 2,158
2007-05-30 May 30th: Ranavalona and Clean Coal 04:00 137,270 1,862 25 137 2,923
2007-06-13 June 13: Dominican Debacles 03:10 100,816 1,425 14 143 3,446
2007-06-27 June 27: Good Morning John, it's Wednesday 02:40 119,244 2,730 33 313 2,074
2007-07-18 July 18: Accio Deathly Hallows (no spoilers) 03:54 1,987,212 29,684 1,406 6,508 3,021
2007-08-01 August 1: It's Too Hot 03:44 328,983 5,029 75 921 3,209
2007-08-15 August 15: Getting Featured on YouTube 03:57 130,963 3,219 41 404 2,914
2007-08-29 August 29th: Goodbye 29 Year Old John 02:51 134,482 2,464 38 258 1,912
2007-09-05 September 5th: I'm Gonna Kill You 03:59 304,770 6,372 190 908 2,412
2007-09-19 September 19th: The Luck of my Life 03:00 151,416 5,349 62 541 1,460
2007-10-03 Oct 3rd: Baby I Sold Your Dog On EBay 03:59 154,865 3,046 85 318 2,176
2007-10-17 October 17th: The Man Who Throws The Tetris Piece 02:50 288,679 6,900 107 878 886
2007-10-31 October 31st: Nerd Gurl *EXPLICIT* 02:46 162,632 4,090 162 1,010 1,894
2007-12-05 December 5th: The Adorable Cannibal (PG-13) 04:00 105,327 1,918 55 341 2,844
2007-12-19 December 19: The Day that the Nerds Took Over YouTube 03:57 130,643 3,329 50 551 3,154
2007-12-31 Dec 31: Goodbye Brotherhood 2.0 04:35 257,053 8,195 63 2,238 2,978
2008-02-27 People Who Love Giraffes Who Love Giraffes (The Song) 04:01 725,706 4,994 208 785 2,699
2008-05-07 From the Airport: And some Nerdfighterlike 03:58 185,243 5,453 56 870 2,368
2008-07-10 What Would Captain Picard Do 05:10 254,927 5,131 186 882 2,926
2008-07-18 Book Eight...Another Harry Potter Song 04:49 341,747 7,244 119 1,717 4,147
2008-08-27 Butte Montana 00:36 104,213 1,628 40 306 443
2008-10-01 The Man Who Throws the Tetris Piece 04:51 154,683 2,326 69 308 2,149
2008-10-30 Hank and Katherine...On the Rise 03:59 355,016 10,702 111 2,170 3,408
2008-10-31 SPWNING Halloween 03:23 109,951 1,911 31 260 2,915
2008-12-22 A Christmas Song! 03:56 157,196 3,068 88 732 3,977
2009-01-14 TIny Cars SUCK! 03:16 464,575 4,342 793 1,247 2,323
2009-02-11 A Song About an Anglerfish 02:55 1,449,982 25,720 407 4,341 3,774
2009-02-25 I Know (A Song in Ten Words) 03:00 1,150,648 16,901 211 3,317 2,744
2009-03-11 I'm Not Edward Cullen: A Song 02:58 533,838 6,868 291 1,457 2,366
2009-03-25 Squirrel Attack! 04:00 6,396,983 12,138 8,630 3,748 4,131
2009-04-08 It All Makes Sense at the End 03:37 375,132 8,227 122 1,544 2,678
2009-04-16 The Day the YouTubes Died 04:01 316,177 8,305 261 1,851 2,695
2009-04-23 DFTBA 04:50 814,413 20,027 250 3,636 3,004
2009-04-30 A GOAT GIVING BIRTH 03:09 3,885,691 6,422 591 2,705 2,475
2009-05-06 Dead Boy's Girlfriend 04:01 183,800 3,754 92 695 2,892
2009-05-20 Ulcerative Colitis: A Song 03:52 167,371 3,890 66 1,123 4,991
2009-06-03 Protons and Neutrons: A Song 02:58 201,843 5,143 99 632 1,069
2009-07-01 Most Subscribed: A Song 02:53 106,767 2,652 96 404 2,109
2009-07-15 This Isn't Hogwarts! A Harry Potter Song 04:00 944,201 20,268 507 3,130 3,852
2009-07-30 Mules are so Half-Ass 04:00 186,481 5,655 107 706 3,960
2009-08-12 Vegetables that look like Penises 03:35 369,795 6,855 825 1,769 2,794
2009-08-18 So Jokes: Video EP 15:52 122,078 2,628 68 409 9,026
2009-08-26 DEMOLITION DERBY! 04:00 183,868 2,808 183 491 4,086
2009-09-09 Television Crime Shows Suck 04:00 445,188 18,095 276 2,765 4,097
2009-10-07 Nerdfighteria Island 03:20 189,398 5,061 107 961 2,309
2009-10-21 Balloon Boy: A Short Song 03:50 98,829 2,635 72 358 3,787
2009-11-04 Please Buy My Album (A Song / Medley) 04:01 105,932 2,583 134 431 3,671
2009-12-02 This Machine Pwns n00bs: A Song 04:00 111,973 2,981 124 605 3,648
2009-12-16 Project for Awesome: The Nature Conservancy 03:50 90,770 6,012 50 1,725 3,921
2009-12-30 The STUPIDEST NEWS STORIES of 2009 (a song) 04:00 459,336 13,551 204 1,433 4,247
2010-05-12 Hank Raps about w00tstock...for real 03:15 179,273 7,559 163 989 3,696
2010-05-31 Farmville!!!!! A Song 03:18 240,429 5,597 279 607 3,752
2010-08-24 FRENCH THE LLAMA! John is 33! 05:56 253,917 8,008 66 2,875 4,136
2010-10-06 The Fermi Paradox: A Song 03:15 450,298 11,250 185 1,930 3,156
2010-10-20 Strange Charm: A Song about Quarks 02:33 1,701,717 32,564 235 7,621 3,106
2010-11-03 Phineas Gage: A Song 04:01 308,734 5,943 89 1,037 3,934
2010-11-17 HARRY POTTER SONG! 04:01 533,135 19,717 312 2,562 4,141
2010-12-01 Makin' Babies: A Song 03:20 320,397 5,709 165 1,739 3,895
2010-12-15 Adult Female: A Song 03:31 278,535 7,667 175 1,077 2,406
2011-07-15 Harry Freaking Potter 04:01 361,508 10,755 239 1,935 4,302
2011-10-07 Steve Jobs and a Song 03:47 278,846 7,534 266 1,266 3,850
2011-11-14 T-Shirt and Jeans - A Song 03:53 372,810 7,435 244 1,692 3,865
2012-04-13 This is How You Load a Dishwasher - A Song 04:00 447,051 12,969 214 2,373 4,747
2012-05-25 The Subway Where I Used To Go (Somebody That I Used To Know / Gotye Parody) 03:37 644,555 18,344 327 2,806 3,163
2012-07-20 The Universe is Weird: A Song 03:56 759,159 21,941 220 2,849 4,682
2012-07-27 Tumblr: The Musical 03:58 2,733,100 66,025 2,160 8,773 4,246
2012-08-10 I Don't Have a Favorite Pony 04:00 621,064 16,800 487 4,596 4,802
2012-08-17 Open Letter to the Wizards 04:01 338,538 8,270 110 2,035 4,349
2012-10-05 21st Century Sherlock: A Sherlock / Doors Song 03:27 355,291 11,399 369 1,416 3,436
2013-07-12 Oh, JK Rowling - A Harry Potter Song 03:29 445,434 20,705 271 2,696 4,012
2013-09-06 Undigested Lump (A Song) 03:58 343,828 31,412 465 2,608 5,215
2014-04-18 What is The Oldest Song? 04:00 632,196 21,756 393 1,632 3,591
2014-04-25 I Love Science (Clean Version) (Uncensored link in the Description) 03:44 597,757 12,900 397 1,279 3,608
2014-05-09 Oh JK Rowling - Kinetic Typography 03:59 679,514 22,493 688 1,359 4,298
2015-12-18 We're All Gonna Die - A Song 03:20 431,626 24,416 335 1,928 4,590
2016-05-13 The Time I Fell Asleep with an M&M in My Mouth (and a song) 03:51 251,851 9,729 207 1,153 4,602